createdAt,value
2023-04-01T00:01:18.831Z,1.00
2023-04-01T00:03:47.179Z,0.63
2023-04-01T00:06:17.105Z,0.75
2023-04-01T00:08:45.811Z,0.90
2023-04-01T00:11:16.480Z,0.82
2023-04-01T00:13:44.943Z,0.98
2023-04-01T00:16:20.349Z,0.90
2023-04-01T00:18:51.213Z,1.05
2023-04-01T00:21:20.308Z,0.90
2023-04-01T00:23:48.599Z,0.68
2023-04-01T00:26:20.332Z,1.15
2023-04-01T00:28:48.551Z,1.25
2023-04-01T00:31:17.505Z,1.17
2023-04-01T00:33:46.895Z,0.90
2023-04-01T00:36:17.717Z,0.80
2023-04-01T00:38:47.084Z,1.13
2023-04-01T00:41:19.754Z,1.05
2023-04-01T00:43:50.749Z,1.00
2023-04-01T00:46:20.138Z,0.90
2023-04-01T00:48:52.526Z,1.38
2023-04-01T00:51:24.959Z,0.88
2023-04-01T00:53:56.850Z,0.93
2023-04-01T00:56:30.285Z,1.10
2023-04-01T00:59:02.797Z,0.70
2023-04-01T01:01:36.190Z,1.10
2023-04-01T01:04:05.723Z,0.75
2023-04-01T01:06:45.148Z,0.75
2023-04-01T01:09:30.571Z,0.82
2023-04-01T01:12:09.639Z,0.65
2023-04-01T01:14:51.339Z,0.90
2023-04-01T01:17:30.291Z,1.00
2023-04-01T01:20:34.315Z,0.95
2023-04-01T01:23:44.130Z,0.90
2023-04-01T01:26:41.966Z,1.15
2023-04-01T01:29:34.903Z,0.60
2023-04-01T01:32:10.800Z,0.90
2023-04-01T01:34:46.388Z,0.65
2023-04-01T01:37:20.801Z,0.70
2023-04-01T01:39:55.732Z,0.50
2023-04-01T01:42:28.939Z,0.68
2023-04-01T01:45:02.021Z,0.70
2023-04-01T01:47:32.219Z,0.68
2023-04-01T01:50:02.691Z,0.70
2023-04-01T01:52:33.759Z,0.70
2023-04-01T01:55:03.104Z,0.90
2023-04-01T01:57:42.507Z,0.95
2023-04-01T02:00:20.321Z,0.90
2023-04-01T02:02:52.647Z,0.80
2023-04-01T02:05:25.638Z,0.70
2023-04-01T02:08:04.616Z,0.65
2023-04-01T02:10:38.499Z,0.70
2023-04-01T02:13:12.149Z,0.70
2023-04-01T02:15:47.094Z,0.90
2023-04-01T02:18:18.234Z,0.60
2023-04-01T02:20:48.701Z,0.70
2023-04-01T02:23:19.003Z,0.80
2023-04-01T02:25:49.685Z,0.80
2023-04-01T02:28:21.771Z,0.80
2023-04-01T02:30:51.879Z,0.70
2023-04-01T02:33:22.462Z,0.90
2023-04-01T02:35:52.824Z,0.85
2023-04-01T02:38:22.553Z,0.85
2023-04-01T02:40:53.563Z,0.70
2023-04-01T02:43:22.324Z,0.80
2023-04-01T02:45:50.636Z,0.85
2023-04-01T02:48:19.830Z,0.88
2023-04-01T02:50:47.998Z,1.00
2023-04-01T02:53:16.426Z,0.70
2023-04-01T02:55:46.099Z,1.02
2023-04-01T02:58:14.461Z,0.80
2023-04-01T03:00:42.552Z,0.73
2023-04-01T03:03:11.355Z,0.60
2023-04-01T03:05:39.481Z,0.80
2023-04-01T03:08:07.780Z,0.70
2023-04-01T03:10:35.908Z,0.70
2023-04-01T03:13:07.397Z,0.80
2023-04-01T03:15:36.208Z,0.93
2023-04-01T03:18:05.466Z,1.00
2023-04-01T03:20:33.678Z,0.77
2023-04-01T03:23:01.985Z,1.00
2023-04-01T03:25:31.969Z,0.57
2023-04-01T03:28:01.482Z,0.75
2023-04-01T03:30:32.643Z,0.65
2023-04-01T03:33:01.748Z,0.93
2023-04-01T03:35:30.159Z,0.60
2023-04-01T03:37:58.210Z,0.60
2023-04-01T03:40:27.365Z,1.75
2023-04-01T03:42:57.251Z,0.70
2023-04-01T03:45:26.270Z,0.65
2023-04-01T03:47:56.823Z,0.90
2023-04-01T03:50:25.629Z,0.77
2023-04-01T03:52:54.077Z,0.70
2023-04-01T03:55:22.297Z,0.50
2023-04-01T03:57:50.516Z,0.50
2023-04-01T04:00:21.041Z,0.50
2023-04-01T04:02:57.134Z,0.80
2023-04-01T04:05:32.303Z,0.73
2023-04-01T04:08:00.946Z,0.80
2023-04-01T04:10:30.242Z,0.70
2023-04-01T04:12:58.965Z,1.00
2023-04-01T04:15:30.535Z,0.60
2023-04-01T04:18:00.523Z,0.80
2023-04-01T04:20:28.698Z,0.60
2023-04-01T04:22:57.085Z,1.63
2023-04-01T04:25:25.456Z,0.90
2023-04-01T04:27:53.929Z,0.70
2023-04-01T04:30:22.233Z,0.80
2023-04-01T04:32:50.919Z,0.80
2023-04-01T04:35:20.451Z,0.90
2023-04-01T04:37:48.739Z,0.60
2023-04-01T04:40:18.109Z,0.88
2023-04-01T04:42:46.540Z,0.70
2023-04-01T04:45:17.586Z,0.82
2023-04-01T04:47:54.740Z,0.55
2023-04-01T04:50:25.544Z,0.77
2023-04-01T04:52:53.630Z,0.73
2023-04-01T04:55:22.496Z,0.60
2023-04-01T04:58:02.306Z,0.73
2023-04-01T05:00:30.453Z,0.50
2023-04-01T05:03:02.411Z,0.70
2023-04-01T05:05:32.284Z,0.75
2023-04-01T05:08:01.014Z,0.85
2023-04-01T05:10:29.349Z,0.70
2023-04-01T05:12:57.440Z,1.25
2023-04-01T05:15:26.340Z,0.60
2023-04-01T05:17:54.507Z,1.13
2023-04-01T05:20:22.702Z,1.15
2023-04-01T05:22:52.436Z,0.82
2023-04-01T05:25:20.949Z,1.27
2023-04-01T05:27:49.408Z,0.70
2023-04-01T05:30:17.812Z,0.60
2023-04-01T05:33:04.174Z,1.70
2023-04-01T05:35:32.674Z,0.60
2023-04-01T05:38:02.512Z,1.10
2023-04-01T05:40:30.946Z,0.60
2023-04-01T05:42:59.280Z,0.70
2023-04-01T05:45:27.732Z,0.60
2023-04-01T05:48:14.312Z,0.88
2023-04-01T05:50:43.738Z,0.70
2023-04-01T05:53:14.729Z,0.60
2023-04-01T05:55:45.633Z,1.00
2023-04-01T05:58:14.735Z,1.13
2023-04-01T06:00:47.914Z,0.60
2023-04-01T06:03:19.287Z,1.00
2023-04-01T06:05:47.974Z,0.80
2023-04-01T06:08:20.934Z,0.60
2023-04-01T06:11:04.618Z,0.88
2023-04-01T06:13:49.713Z,0.90
2023-04-01T06:16:27.113Z,0.80
2023-04-01T06:19:19.332Z,0.80
2023-04-01T06:22:03.350Z,0.70
2023-04-01T06:24:50.272Z,0.85
2023-04-01T06:27:32.694Z,1.13
2023-04-01T06:30:25.975Z,0.77
2023-04-01T06:33:31.252Z,0.77
2023-04-01T06:36:15.021Z,0.60
2023-04-01T06:39:08.944Z,0.85
2023-04-01T06:42:04.319Z,0.70
2023-04-01T06:44:44.449Z,1.00
2023-04-01T06:47:45.670Z,0.80
2023-04-01T06:50:42.347Z,0.57
2023-04-01T06:53:38.748Z,0.60
2023-04-01T06:56:42.986Z,0.88
2023-04-01T06:59:30.182Z,0.60
2023-04-01T07:02:01.743Z,0.60
2023-04-01T07:04:34.165Z,0.70
2023-04-01T07:07:07.376Z,0.65
2023-04-01T07:09:43.072Z,0.90
2023-04-01T07:12:46.355Z,0.80
2023-04-01T07:15:22.394Z,0.95
2023-04-01T07:17:56.394Z,0.70
2023-04-01T07:20:28.398Z,0.93
2023-04-01T07:23:00.527Z,0.80
2023-04-01T07:25:37.613Z,0.80
2023-04-01T07:28:24.733Z,0.80
2023-04-01T07:31:17.968Z,0.95
2023-04-01T07:33:55.368Z,0.80
2023-04-01T07:36:32.337Z,0.80
2023-04-01T07:39:11.977Z,1.33
2023-04-01T07:42:07.388Z,0.65
2023-04-01T07:44:46.799Z,0.60
2023-04-01T07:47:31.502Z,0.73
2023-04-01T07:50:09.581Z,0.60
2023-04-01T07:52:46.961Z,0.60
2023-04-01T07:55:28.325Z,0.70
2023-04-01T07:58:06.680Z,0.50
2023-04-01T08:00:46.843Z,0.70
2023-04-01T08:03:40.825Z,0.50
2023-04-01T08:06:18.994Z,0.65
2023-04-01T08:08:59.120Z,0.70
2023-04-01T08:12:02.580Z,0.60
2023-04-01T08:15:22.377Z,0.70
2023-04-01T08:18:36.000Z,0.60
2023-04-01T08:21:07.839Z,0.70
2023-04-01T08:23:40.610Z,0.82
2023-04-01T08:26:14.947Z,0.70
2023-04-01T08:28:48.877Z,0.70
2023-04-01T08:31:25.457Z,0.70
2023-04-01T08:33:56.685Z,0.60
2023-04-01T08:36:30.732Z,0.60
2023-04-01T08:39:17.524Z,0.60
2023-04-01T08:42:31.642Z,0.70
2023-04-01T08:45:56.343Z,0.60
2023-04-01T08:48:45.099Z,0.60
2023-04-01T08:51:53.928Z,0.60
2023-04-01T08:54:45.195Z,0.50
2023-04-01T08:57:21.768Z,0.50
2023-04-01T09:00:28.533Z,0.60
2023-04-01T09:03:46.877Z,0.60
2023-04-01T09:06:28.805Z,0.52
2023-04-01T09:09:21.137Z,0.50
2023-04-01T09:12:10.799Z,0.50
2023-04-01T09:15:00.559Z,0.80
2023-04-01T09:17:51.218Z,0.70
2023-04-01T09:20:42.867Z,0.60
2023-04-01T09:23:29.369Z,0.50
2023-04-01T09:26:10.841Z,0.50
2023-04-01T09:28:47.193Z,0.50
2023-04-01T09:31:28.952Z,0.50
2023-04-01T09:34:33.711Z,0.82
2023-04-01T09:37:34.482Z,0.50
2023-04-01T09:40:19.426Z,0.50
2023-04-01T09:43:08.181Z,0.52
2023-04-01T09:45:50.705Z,0.80
2023-04-01T09:48:41.352Z,0.40
2023-04-01T09:51:25.308Z,0.40
2023-04-01T09:54:07.025Z,0.68
2023-04-01T09:57:07.912Z,0.50
2023-04-01T10:00:10.887Z,0.60
2023-04-01T10:03:36.453Z,0.65
2023-04-01T10:06:48.041Z,0.60
2023-04-01T10:09:55.415Z,0.40
2023-04-01T10:12:50.039Z,0.40
2023-04-01T10:15:46.708Z,0.40
2023-04-01T10:18:58.536Z,0.40
2023-04-01T10:22:07.009Z,0.60
2023-04-01T10:25:06.459Z,0.60
2023-04-01T10:27:58.317Z,0.50
2023-04-01T10:31:10.864Z,0.40
2023-04-01T10:34:17.198Z,0.50
2023-04-01T10:36:53.074Z,0.50
2023-04-01T10:40:01.956Z,0.52
2023-04-01T10:43:38.757Z,0.57
2023-04-01T10:46:33.500Z,0.50
2023-04-01T10:49:33.525Z,0.40
2023-04-01T10:52:30.191Z,0.50
2023-04-01T10:55:42.710Z,0.40
2023-04-01T10:59:12.729Z,0.50
2023-04-01T11:02:38.635Z,0.60
2023-04-01T11:06:08.267Z,0.55
2023-04-01T11:09:12.140Z,0.50
2023-04-01T11:12:07.027Z,0.50
2023-04-01T11:15:11.702Z,0.55
2023-04-01T11:18:20.396Z,0.40
2023-04-01T11:21:28.622Z,0.47
2023-04-01T11:24:10.614Z,0.40
2023-04-01T11:27:00.440Z,0.40
2023-04-01T11:30:00.286Z,0.45
2023-04-01T11:32:55.111Z,0.50
2023-04-01T11:35:42.336Z,0.47
2023-04-01T11:38:22.290Z,0.50
2023-04-01T11:40:59.286Z,0.50
2023-04-01T11:44:20.269Z,0.40
2023-04-01T11:47:16.764Z,0.50
2023-04-01T11:49:55.703Z,0.40
2023-04-01T11:52:49.953Z,0.40
2023-04-01T11:55:30.770Z,0.73
2023-04-01T11:58:22.151Z,0.70
2023-04-01T12:01:05.581Z,0.47
2023-04-01T12:03:56.566Z,0.43
2023-04-01T12:06:34.657Z,0.47
2023-04-01T12:09:11.899Z,0.60
2023-04-01T12:11:46.977Z,0.60
2023-04-01T12:14:21.650Z,0.50
2023-04-01T12:16:59.698Z,0.50
2023-04-01T12:19:37.925Z,0.50
2023-04-01T12:22:19.641Z,0.50
2023-04-01T12:24:51.694Z,0.90
2023-04-01T12:27:43.042Z,0.40
2023-04-01T12:30:32.317Z,0.50
2023-04-01T12:33:18.645Z,0.50
2023-04-01T12:36:00.793Z,0.60
2023-04-01T12:38:38.413Z,0.50
2023-04-01T12:41:23.820Z,0.40
2023-04-01T12:44:19.976Z,0.50
2023-04-01T12:47:09.978Z,0.60
2023-04-01T12:50:14.681Z,0.68
2023-04-01T12:55:56.532Z,0.50
2023-04-01T12:59:08.874Z,0.50
2023-04-01T13:02:00.509Z,0.60
2023-04-01T13:04:58.610Z,0.43
2023-04-01T13:08:05.337Z,0.40
2023-04-01T13:10:55.729Z,0.50
2023-04-01T13:13:50.472Z,0.70
2023-04-01T13:16:27.027Z,0.40
2023-04-01T13:19:03.026Z,0.50
2023-04-01T13:21:41.115Z,0.40
2023-04-01T13:24:23.191Z,0.45
2023-04-01T13:27:00.954Z,0.60
2023-04-01T13:29:33.929Z,0.50
2023-04-01T13:32:18.492Z,0.40
2023-04-01T13:35:03.306Z,0.43
2023-04-01T13:37:48.716Z,0.40
2023-04-01T13:40:31.384Z,0.50
2023-04-01T13:43:04.694Z,0.40
2023-04-01T13:45:44.724Z,0.50
2023-04-01T13:48:44.889Z,0.40
2023-04-01T13:51:42.728Z,0.50
2023-04-01T13:54:36.875Z,0.43
2023-04-01T13:57:26.130Z,0.40
2023-04-01T14:00:26.900Z,0.40
2023-04-01T14:03:28.865Z,0.40
2023-04-01T14:06:11.731Z,0.50
2023-04-01T14:08:58.146Z,0.43
2023-04-01T14:11:39.283Z,0.40
2023-04-01T14:14:21.312Z,0.50
2023-04-01T14:17:24.733Z,0.40
2023-04-01T14:20:16.450Z,0.40
2023-04-01T14:23:01.802Z,0.40
2023-04-01T14:25:50.278Z,0.43
2023-04-01T14:28:29.250Z,0.40
2023-04-01T14:31:20.786Z,0.50
2023-04-01T14:34:00.580Z,0.40
2023-04-01T14:36:53.162Z,0.40
2023-04-01T14:39:42.521Z,0.50
2023-04-01T14:42:26.883Z,0.40
2023-04-01T14:45:18.424Z,0.60
2023-04-01T14:47:52.889Z,0.52
2023-04-01T14:50:24.034Z,0.40
2023-04-01T14:52:59.906Z,0.70
2023-04-01T14:55:35.604Z,0.50
2023-04-01T14:58:12.382Z,0.40
2023-04-01T15:01:09.277Z,0.50
2023-04-01T15:03:48.703Z,0.50
2023-04-01T15:06:37.703Z,0.40
2023-04-01T15:09:17.097Z,0.43
2023-04-01T15:11:59.329Z,0.50
2023-04-01T15:14:48.473Z,0.50
2023-04-01T15:17:30.175Z,0.50
2023-04-01T15:20:15.976Z,0.50
2023-04-01T15:23:00.904Z,0.50
2023-04-01T15:26:04.018Z,0.52
2023-04-01T15:28:41.893Z,0.40
2023-04-01T15:31:17.280Z,0.50
2023-04-01T15:33:57.666Z,0.60
2023-04-01T15:36:35.902Z,0.50
2023-04-01T15:39:16.490Z,0.40
2023-04-01T15:41:58.475Z,0.60
2023-04-01T15:44:45.505Z,0.50
2023-04-01T15:47:34.358Z,0.50
2023-04-01T15:50:28.761Z,0.63
2023-04-01T15:53:09.625Z,0.60
2023-04-01T15:55:47.162Z,0.65
2023-04-01T15:58:38.731Z,0.73
2023-04-01T16:01:19.713Z,0.65
2023-04-01T16:03:56.662Z,1.10
2023-04-01T16:06:55.079Z,0.80
2023-04-01T16:09:49.837Z,0.95
2023-04-01T16:12:23.056Z,0.80
2023-04-01T16:15:00.682Z,0.70
2023-04-01T16:17:56.068Z,0.73
2023-04-01T16:20:28.621Z,0.60
2023-04-01T16:23:02.590Z,0.60
2023-04-01T16:25:37.992Z,1.10
2023-04-01T16:28:21.762Z,0.55
2023-04-01T16:30:57.531Z,0.75
2023-04-01T16:33:37.724Z,1.23
2023-04-01T16:36:13.253Z,0.82
2023-04-01T16:38:48.781Z,0.73
2023-04-01T16:41:21.359Z,0.90
2023-04-01T16:43:56.843Z,1.33
2023-04-01T16:46:38.055Z,0.90
2023-04-01T16:49:25.082Z,0.80
2023-04-01T16:51:57.060Z,1.00
2023-04-01T16:54:33.555Z,1.15
2023-04-01T16:57:13.004Z,1.20
2023-04-01T16:59:49.196Z,1.23
2023-04-01T17:02:22.935Z,1.00
2023-04-01T17:04:58.635Z,1.35
2023-04-01T17:07:37.875Z,1.02
2023-04-01T17:10:38.387Z,0.90
2023-04-01T17:13:24.413Z,1.00
2023-04-01T17:16:03.764Z,1.10
2023-04-01T17:18:42.336Z,1.20
2023-04-01T17:21:16.165Z,1.05
2023-04-01T17:23:53.089Z,1.15
2023-04-01T17:26:35.662Z,1.10
2023-04-01T17:29:14.051Z,0.80
2023-04-01T17:31:48.664Z,1.20
2023-04-01T17:34:43.343Z,1.10
2023-04-01T17:37:39.950Z,0.90
2023-04-01T17:40:44.383Z,0.80
2023-04-01T17:43:23.148Z,1.13
2023-04-01T17:45:56.415Z,0.88
2023-04-01T17:48:39.506Z,1.20
2023-04-01T17:51:21.461Z,0.82
2023-04-01T17:53:59.868Z,0.90
2023-04-01T17:56:41.111Z,0.70
2023-04-01T17:59:20.892Z,0.85
2023-04-01T18:01:59.490Z,0.80
2023-04-01T18:04:44.701Z,0.80
2023-04-01T18:07:30.566Z,0.60
2023-04-01T18:10:14.332Z,0.80
2023-04-01T18:12:57.839Z,1.08
2023-04-01T18:15:35.219Z,0.95
2023-04-01T18:18:20.217Z,1.00
2023-04-01T18:20:56.628Z,0.75
2023-04-01T18:23:37.459Z,1.15
2023-04-01T18:26:11.448Z,1.30
2023-04-01T18:28:41.877Z,1.40
2023-04-01T18:31:17.997Z,1.20
2023-04-01T18:33:56.848Z,1.30
2023-04-01T18:36:36.525Z,1.45
2023-04-01T18:39:13.158Z,1.65
2023-04-01T18:41:56.152Z,1.38
2023-04-01T18:44:36.799Z,1.45
2023-04-01T18:47:16.451Z,1.40
2023-04-01T18:49:50.366Z,1.33
2023-04-01T18:52:24.929Z,1.27
2023-04-01T18:55:27.459Z,1.30
2023-04-01T18:58:13.481Z,1.33
2023-04-01T19:00:47.605Z,1.10
2023-04-01T19:03:24.037Z,1.02
2023-04-01T19:05:55.750Z,0.90
2023-04-01T19:08:30.103Z,1.20
2023-04-01T19:11:10.265Z,1.10
2023-04-01T19:13:51.660Z,1.00
2023-04-01T19:16:31.044Z,1.30
2023-04-01T19:19:14.134Z,1.30
2023-04-01T19:21:48.015Z,1.13
2023-04-01T19:24:48.432Z,1.15
2023-04-01T19:27:28.755Z,1.15
2023-04-01T19:30:16.098Z,1.55
2023-04-01T19:32:55.025Z,1.20
2023-04-01T19:35:31.380Z,1.30
2023-04-01T19:38:05.078Z,1.45
2023-04-01T19:40:55.746Z,1.77
2023-04-01T19:43:47.096Z,2.00
2023-04-01T19:46:26.831Z,1.65
2023-04-01T19:49:15.426Z,1.70
2023-04-01T19:51:53.005Z,1.70
2023-04-01T19:54:32.650Z,1.40
2023-04-01T19:57:12.582Z,1.88
2023-04-01T19:59:47.093Z,1.60
2023-04-01T20:02:40.356Z,1.38
2023-04-01T20:05:33.164Z,1.67
2023-04-01T20:08:09.933Z,1.20
2023-04-01T20:10:43.373Z,1.30
2023-04-01T20:13:20.272Z,1.23
2023-04-01T20:16:00.208Z,1.40
2023-04-01T20:18:39.439Z,1.00
2023-04-01T20:21:18.965Z,1.00
2023-04-01T20:23:52.950Z,1.88
2023-04-01T20:26:24.646Z,1.45
2023-04-01T20:29:08.234Z,1.33
2023-04-01T20:31:38.412Z,1.25
2023-04-01T20:34:32.351Z,1.15
2023-04-01T20:37:17.585Z,1.60
2023-04-01T20:40:23.200Z,1.20
2023-04-01T20:43:10.176Z,1.02
2023-04-01T20:45:50.680Z,0.90
2023-04-01T20:48:51.549Z,1.52
2023-04-01T20:51:25.119Z,1.40
2023-04-01T20:54:04.884Z,1.50
2023-04-01T20:56:42.881Z,1.33
2023-04-01T20:59:38.404Z,1.00
2023-04-01T21:02:24.260Z,1.52
2023-04-01T21:05:21.190Z,1.52
2023-04-01T21:07:56.541Z,1.42
2023-04-01T21:10:40.883Z,1.30
2023-04-01T21:13:23.626Z,1.80
2023-04-01T21:16:03.337Z,1.30
2023-04-01T21:18:48.323Z,1.35
2023-04-01T21:21:36.095Z,1.15
2023-04-01T21:24:40.870Z,1.38
2023-04-01T21:27:21.983Z,0.98
2023-04-01T21:30:01.270Z,0.88
2023-04-01T21:32:54.596Z,1.20
2023-04-01T21:35:34.500Z,1.10
2023-04-01T21:38:25.903Z,1.00
2023-04-01T21:41:20.245Z,1.40
2023-04-01T21:44:23.485Z,1.30
2023-04-01T21:47:35.463Z,1.23
2023-04-01T21:50:30.048Z,1.27
2023-04-01T21:53:35.669Z,1.30
2023-04-01T21:56:51.916Z,1.08
2023-04-01T21:59:53.972Z,1.15
2023-04-01T22:05:20.934Z,1.55
2023-04-01T22:08:01.875Z,1.10
2023-04-01T22:10:37.420Z,1.10
2023-04-01T22:13:14.758Z,1.00
2023-04-01T22:16:02.080Z,0.93
2023-04-01T22:18:36.073Z,1.98
2023-04-01T22:21:17.531Z,0.98
2023-04-01T22:23:50.417Z,1.00
2023-04-01T22:26:27.976Z,1.00
2023-04-01T22:29:06.894Z,0.93
2023-04-01T22:31:41.567Z,0.90
2023-04-01T22:34:18.988Z,0.90
2023-04-01T22:36:56.978Z,0.88
2023-04-01T22:39:39.058Z,0.82
2023-04-01T22:42:18.980Z,0.68
2023-04-01T22:44:57.381Z,1.23
2023-04-01T22:47:34.521Z,1.10
2023-04-01T22:50:11.408Z,1.00
2023-04-01T22:52:45.355Z,1.17
2023-04-01T22:55:17.737Z,0.80
2023-04-01T22:57:53.107Z,1.00
2023-04-01T23:00:27.099Z,0.70
2023-04-01T23:03:11.547Z,0.80
2023-04-01T23:05:48.296Z,0.80
2023-04-01T23:08:56.057Z,1.00
2023-04-01T23:11:29.118Z,0.88
2023-04-01T23:14:19.511Z,0.80
2023-04-01T23:16:54.519Z,1.05
2023-04-01T23:19:27.685Z,0.70
2023-04-01T23:22:04.612Z,0.85
2023-04-01T23:24:38.320Z,0.70
2023-04-01T23:27:13.966Z,0.85
2023-04-01T23:29:43.975Z,0.93
2023-04-01T23:32:19.320Z,1.00
2023-04-01T23:34:50.502Z,0.98
2023-04-01T23:37:20.564Z,0.82
2023-04-01T23:39:51.184Z,0.77
2023-04-01T23:42:25.286Z,0.60
2023-04-01T23:44:55.781Z,0.85
2023-04-01T23:47:27.051Z,0.93
2023-04-01T23:49:57.934Z,0.70
2023-04-01T23:52:28.504Z,0.63
2023-04-01T23:54:59.231Z,0.80
2023-04-01T23:57:32.921Z,1.10
